sensor_id;sensor_type;location;lat;lon;timestamp;P1;durP1;ratioP1;P2;durP2;ratioP2
21758;SDS011;11041;50.854;20.580;2022-07-29T00:01:17;4.90;;;2.83;;
21758;SDS011;11041;50.854;20.580;2022-07-29T00:03:43;4.53;;;2.60;;
21758;SDS011;11041;50.854;20.580;2022-07-29T00:06:14;3.65;;;2.33;;
21758;SDS011;11041;50.854;20.580;2022-07-29T00:08:41;5.32;;;2.75;;
21758;SDS011;11041;50.854;20.580;2022-07-29T00:11:08;4.57;;;2.35;;
21758;SDS011;11041;50.854;20.580;2022-07-29T00:13:34;5.32;;;2.50;;
21758;SDS011;11041;50.854;20.580;2022-07-29T00:16:01;7.38;;;2.50;;
21758;SDS011;11041;50.854;20.580;2022-07-29T00:18:28;5.97;;;2.90;;
21758;SDS011;11041;50.854;20.580;2022-07-29T00:20:54;3.28;;;2.45;;
21758;SDS011;11041;50.854;20.580;2022-07-29T00:23:21;4.05;;;2.50;;
21758;SDS011;11041;50.854;20.580;2022-07-29T00:25:48;5.00;;;2.75;;
21758;SDS011;11041;50.854;20.580;2022-07-29T00:28:14;4.45;;;2.58;;
21758;SDS011;11041;50.854;20.580;2022-07-29T00:30:41;5.90;;;3.05;;
21758;SDS011;11041;50.854;20.580;2022-07-29T00:33:09;3.72;;;2.42;;
21758;SDS011;11041;50.854;20.580;2022-07-29T00:35:35;4.60;;;3.00;;
21758;SDS011;11041;50.854;20.580;2022-07-29T00:38:15;4.30;;;2.88;;
21758;SDS011;11041;50.854;20.580;2022-07-29T00:40:44;5.45;;;2.67;;
21758;SDS011;11041;50.854;20.580;2022-07-29T00:43:12;5.68;;;3.20;;
21758;SDS011;11041;50.854;20.580;2022-07-29T00:45:40;6.43;;;2.80;;
21758;SDS011;11041;50.854;20.580;2022-07-29T00:48:08;3.38;;;2.30;;
21758;SDS011;11041;50.854;20.580;2022-07-29T00:50:35;5.75;;;2.78;;
21758;SDS011;11041;50.854;20.580;2022-07-29T00:53:04;9.15;;;3.13;;
21758;SDS011;11041;50.854;20.580;2022-07-29T00:55:33;6.10;;;3.13;;
21758;SDS011;11041;50.854;20.580;2022-07-29T00:58:00;5.93;;;3.30;;
21758;SDS011;11041;50.854;20.580;2022-07-29T01:00:28;6.68;;;3.30;;
21758;SDS011;11041;50.854;20.580;2022-07-29T01:02:56;5.90;;;3.08;;
21758;SDS011;11041;50.854;20.580;2022-07-29T01:05:23;4.43;;;2.85;;
21758;SDS011;11041;50.854;20.580;2022-07-29T01:07:54;6.03;;;3.17;;
21758;SDS011;11041;50.854;20.580;2022-07-29T01:10:23;5.43;;;3.53;;
21758;SDS011;11041;50.854;20.580;2022-07-29T01:12:52;6.18;;;3.08;;
21758;SDS011;11041;50.854;20.580;2022-07-29T01:15:22;5.97;;;2.72;;
21758;SDS011;11041;50.854;20.580;2022-07-29T01:17:52;3.25;;;2.75;;
21758;SDS011;11041;50.854;20.580;2022-07-29T01:24:11;3.17;;;2.80;;
21758;SDS011;11041;50.854;20.580;2022-07-29T01:30:07;5.40;;;3.38;;
21758;SDS011;11041;50.854;20.580;2022-07-29T01:32:35;5.50;;;3.70;;
21758;SDS011;11041;50.854;20.580;2022-07-29T01:37:54;4.38;;;2.80;;
21758;SDS011;11041;50.854;20.580;2022-07-29T01:40:51;4.55;;;3.45;;
21758;SDS011;11041;50.854;20.580;2022-07-29T01:43:33;6.18;;;3.13;;
21758;SDS011;11041;50.854;20.580;2022-07-29T01:46:34;5.72;;;3.72;;
21758;SDS011;11041;50.854;20.580;2022-07-29T01:49:15;4.43;;;3.22;;
21758;SDS011;11041;50.854;20.580;2022-07-29T01:51:49;6.22;;;3.25;;
21758;SDS011;11041;50.854;20.580;2022-07-29T01:54:29;6.32;;;3.50;;
21758;SDS011;11041;50.854;20.580;2022-07-29T01:57:16;5.32;;;3.72;;
21758;SDS011;11041;50.854;20.580;2022-07-29T01:59:50;7.60;;;3.78;;
21758;SDS011;11041;50.854;20.580;2022-07-29T02:02:19;6.75;;;3.75;;
21758;SDS011;11041;50.854;20.580;2022-07-29T02:04:50;7.65;;;3.50;;
21758;SDS011;11041;50.854;20.580;2022-07-29T02:07:20;6.05;;;3.78;;
21758;SDS011;11041;50.854;20.580;2022-07-29T02:09:50;7.57;;;3.80;;
21758;SDS011;11041;50.854;20.580;2022-07-29T02:12:19;3.38;;;2.97;;
21758;SDS011;11041;50.854;20.580;2022-07-29T02:14:51;5.07;;;3.33;;
21758;SDS011;11041;50.854;20.580;2022-07-29T02:17:25;6.53;;;3.22;;
21758;SDS011;11041;50.854;20.580;2022-07-29T02:19:59;6.20;;;3.72;;
21758;SDS011;11041;50.854;20.580;2022-07-29T02:22:31;6.38;;;2.88;;
21758;SDS011;11041;50.854;20.580;2022-07-29T02:25:04;7.00;;;3.15;;
21758;SDS011;11041;50.854;20.580;2022-07-29T02:27:33;4.55;;;3.13;;
21758;SDS011;11041;50.854;20.580;2022-07-29T02:30:04;4.80;;;3.13;;
21758;SDS011;11041;50.854;20.580;2022-07-29T02:32:36;5.20;;;3.35;;
21758;SDS011;11041;50.854;20.580;2022-07-29T02:35:07;6.05;;;3.22;;
21758;SDS011;11041;50.854;20.580;2022-07-29T02:37:38;4.60;;;2.72;;
21758;SDS011;11041;50.854;20.580;2022-07-29T02:40:09;4.32;;;3.05;;
21758;SDS011;11041;50.854;20.580;2022-07-29T02:42:41;6.40;;;3.30;;
21758;SDS011;11041;50.854;20.580;2022-07-29T02:45:11;5.03;;;3.13;;
21758;SDS011;11041;50.854;20.580;2022-07-29T02:47:46;2.97;;;2.78;;
21758;SDS011;11041;50.854;20.580;2022-07-29T02:50:20;4.68;;;3.15;;
21758;SDS011;11041;50.854;20.580;2022-07-29T02:53:02;5.63;;;3.10;;
21758;SDS011;11041;50.854;20.580;2022-07-29T02:55:40;4.78;;;2.95;;
21758;SDS011;11041;50.854;20.580;2022-07-29T02:58:16;6.78;;;3.08;;
21758;SDS011;11041;50.854;20.580;2022-07-29T03:01:19;6.18;;;3.33;;
21758;SDS011;11041;50.854;20.580;2022-07-29T03:03:50;4.18;;;3.03;;
21758;SDS011;11041;50.854;20.580;2022-07-29T03:06:23;5.32;;;3.17;;
21758;SDS011;11041;50.854;20.580;2022-07-29T03:08:52;4.80;;;3.35;;
21758;SDS011;11041;50.854;20.580;2022-07-29T03:11:22;4.15;;;3.25;;
21758;SDS011;11041;50.854;20.580;2022-07-29T03:13:51;3.75;;;2.95;;
21758;SDS011;11041;50.854;20.580;2022-07-29T03:16:19;5.90;;;3.35;;
21758;SDS011;11041;50.854;20.580;2022-07-29T03:18:49;4.30;;;3.40;;
21758;SDS011;11041;50.854;20.580;2022-07-29T03:21:16;6.18;;;3.15;;
21758;SDS011;11041;50.854;20.580;2022-07-29T03:23:43;4.05;;;3.00;;
21758;SDS011;11041;50.854;20.580;2022-07-29T03:26:11;5.88;;;3.05;;
21758;SDS011;11041;50.854;20.580;2022-07-29T03:28:38;4.18;;;3.10;;
21758;SDS011;11041;50.854;20.580;2022-07-29T03:31:05;5.63;;;3.67;;
21758;SDS011;11041;50.854;20.580;2022-07-29T03:33:31;4.15;;;3.15;;
21758;SDS011;11041;50.854;20.580;2022-07-29T03:35:58;6.30;;;3.35;;
21758;SDS011;11041;50.854;20.580;2022-07-29T03:38:25;4.10;;;3.40;;
21758;SDS011;11041;50.854;20.580;2022-07-29T03:40:58;3.80;;;3.22;;
21758;SDS011;11041;50.854;20.580;2022-07-29T03:43:32;4.47;;;3.33;;
21758;SDS011;11041;50.854;20.580;2022-07-29T03:46:06;5.95;;;3.72;;
21758;SDS011;11041;50.854;20.580;2022-07-29T03:48:36;5.10;;;3.33;;
21758;SDS011;11041;50.854;20.580;2022-07-29T03:51:08;3.47;;;3.00;;
21758;SDS011;11041;50.854;20.580;2022-07-29T03:53:35;36.30;;;6.80;;
21758;SDS011;11041;50.854;20.580;2022-07-29T03:56:02;39.47;;;6.00;;
21758;SDS011;11041;50.854;20.580;2022-07-29T03:58:32;32.35;;;6.43;;
21758;SDS011;11041;50.854;20.580;2022-07-29T04:01:00;20.77;;;4.78;;
21758;SDS011;11041;50.854;20.580;2022-07-29T04:03:27;30.27;;;5.50;;
21758;SDS011;11041;50.854;20.580;2022-07-29T04:06:05;37.90;;;6.07;;
21758;SDS011;11041;50.854;20.580;2022-07-29T04:08:33;37.47;;;5.60;;
21758;SDS011;11041;50.854;20.580;2022-07-29T04:11:01;22.80;;;5.07;;
21758;SDS011;11041;50.854;20.580;2022-07-29T04:13:27;19.27;;;5.20;;
21758;SDS011;11041;50.854;20.580;2022-07-29T04:15:54;14.43;;;5.15;;
21758;SDS011;11041;50.854;20.580;2022-07-29T04:18:21;15.00;;;4.90;;
21758;SDS011;11041;50.854;20.580;2022-07-29T04:20:48;16.58;;;4.13;;
21758;SDS011;11041;50.854;20.580;2022-07-29T04:23:15;10.10;;;4.82;;
21758;SDS011;11041;50.854;20.580;2022-07-29T04:25:42;23.58;;;5.57;;
21758;SDS011;11041;50.854;20.580;2022-07-29T04:28:09;17.63;;;4.80;;
21758;SDS011;11041;50.854;20.580;2022-07-29T04:30:36;12.15;;;4.30;;
21758;SDS011;11041;50.854;20.580;2022-07-29T04:33:06;7.63;;;3.80;;
21758;SDS011;11041;50.854;20.580;2022-07-29T04:35:33;10.85;;;3.70;;
21758;SDS011;11041;50.854;20.580;2022-07-29T04:38:03;5.45;;;3.20;;
21758;SDS011;11041;50.854;20.580;2022-07-29T04:40:31;4.45;;;3.05;;
21758;SDS011;11041;50.854;20.580;2022-07-29T04:43:02;7.03;;;3.20;;
21758;SDS011;11041;50.854;20.580;2022-07-29T04:45:28;7.10;;;3.00;;
21758;SDS011;11041;50.854;20.580;2022-07-29T04:47:55;4.60;;;3.10;;
21758;SDS011;11041;50.854;20.580;2022-07-29T04:50:21;3.15;;;2.85;;
21758;SDS011;11041;50.854;20.580;2022-07-29T04:52:48;7.00;;;3.08;;
21758;SDS011;11041;50.854;20.580;2022-07-29T04:55:15;7.95;;;3.20;;
21758;SDS011;11041;50.854;20.580;2022-07-29T04:57:41;6.40;;;2.72;;
21758;SDS011;11041;50.854;20.580;2022-07-29T05:00:08;7.32;;;2.72;;
21758;SDS011;11041;50.854;20.580;2022-07-29T05:02:35;5.00;;;2.95;;
21758;SDS011;11041;50.854;20.580;2022-07-29T05:05:02;3.65;;;2.38;;
21758;SDS011;11041;50.854;20.580;2022-07-29T05:07:29;3.83;;;2.53;;
21758;SDS011;11041;50.854;20.580;2022-07-29T05:09:55;5.72;;;2.47;;
21758;SDS011;11041;50.854;20.580;2022-07-29T05:12:23;6.85;;;2.80;;
21758;SDS011;11041;50.854;20.580;2022-07-29T05:14:50;6.57;;;2.75;;
21758;SDS011;11041;50.854;20.580;2022-07-29T05:17:17;6.95;;;2.53;;
21758;SDS011;11041;50.854;20.580;2022-07-29T05:19:44;6.65;;;2.33;;
21758;SDS011;11041;50.854;20.580;2022-07-29T05:22:10;9.95;;;2.70;;
21758;SDS011;11041;50.854;20.580;2022-07-29T05:24:37;9.45;;;3.08;;
21758;SDS011;11041;50.854;20.580;2022-07-29T05:27:03;6.25;;;2.08;;
21758;SDS011;11041;50.854;20.580;2022-07-29T05:29:29;5.55;;;2.15;;
21758;SDS011;11041;50.854;20.580;2022-07-29T05:31:56;8.40;;;2.22;;
21758;SDS011;11041;50.854;20.580;2022-07-29T05:34:23;3.35;;;2.22;;
21758;SDS011;11041;50.854;20.580;2022-07-29T05:36:50;5.90;;;2.30;;
21758;SDS011;11041;50.854;20.580;2022-07-29T05:39:17;5.20;;;1.90;;
21758;SDS011;11041;50.854;20.580;2022-07-29T05:41:43;4.68;;;2.63;;
21758;SDS011;11041;50.854;20.580;2022-07-29T05:44:10;11.60;;;3.22;;
21758;SDS011;11041;50.854;20.580;2022-07-29T05:46:39;6.10;;;2.05;;
21758;SDS011;11041;50.854;20.580;2022-07-29T05:49:05;4.85;;;1.83;;
21758;SDS011;11041;50.854;20.580;2022-07-29T05:51:33;9.82;;;2.63;;
21758;SDS011;11041;50.854;20.580;2022-07-29T05:54:01;6.53;;;2.25;;
21758;SDS011;11041;50.854;20.580;2022-07-29T05:56:28;8.63;;;2.45;;
21758;SDS011;11041;50.854;20.580;2022-07-29T05:58:54;4.95;;;2.10;;
21758;SDS011;11041;50.854;20.580;2022-07-29T06:01:21;3.78;;;2.17;;
21758;SDS011;11041;50.854;20.580;2022-07-29T06:03:47;3.33;;;2.17;;
21758;SDS011;11041;50.854;20.580;2022-07-29T06:06:14;5.38;;;1.92;;
21758;SDS011;11041;50.854;20.580;2022-07-29T06:08:40;8.70;;;2.00;;
21758;SDS011;11041;50.854;20.580;2022-07-29T06:11:07;4.65;;;1.98;;
21758;SDS011;11041;50.854;20.580;2022-07-29T06:13:36;3.45;;;1.90;;
21758;SDS011;11041;50.854;20.580;2022-07-29T06:16:02;6.25;;;2.30;;
21758;SDS011;11041;50.854;20.580;2022-07-29T06:18:29;2.60;;;1.73;;
21758;SDS011;11041;50.854;20.580;2022-07-29T06:20:56;4.82;;;1.90;;
21758;SDS011;11041;50.854;20.580;2022-07-29T06:23:23;6.97;;;2.30;;
21758;SDS011;11041;50.854;20.580;2022-07-29T06:25:49;2.58;;;1.80;;
21758;SDS011;11041;50.854;20.580;2022-07-29T06:28:15;3.58;;;1.80;;
21758;SDS011;11041;50.854;20.580;2022-07-29T06:30:42;5.53;;;2.17;;
21758;SDS011;11041;50.854;20.580;2022-07-29T06:33:09;4.97;;;1.80;;
21758;SDS011;11041;50.854;20.580;2022-07-29T06:35:44;7.18;;;2.20;;
21758;SDS011;11041;50.854;20.580;2022-07-29T06:38:13;5.38;;;1.90;;
21758;SDS011;11041;50.854;20.580;2022-07-29T06:40:46;9.48;;;1.70;;
21758;SDS011;11041;50.854;20.580;2022-07-29T06:43:33;8.88;;;1.90;;
21758;SDS011;11041;50.854;20.580;2022-07-29T06:46:13;8.27;;;1.90;;
21758;SDS011;11041;50.854;20.580;2022-07-29T06:48:43;5.28;;;1.77;;
21758;SDS011;11041;50.854;20.580;2022-07-29T06:51:11;4.32;;;1.73;;
21758;SDS011;11041;50.854;20.580;2022-07-29T06:53:38;7.47;;;2.22;;
21758;SDS011;11041;50.854;20.580;2022-07-29T06:56:06;3.78;;;1.67;;
21758;SDS011;11041;50.854;20.580;2022-07-29T06:58:39;7.78;;;1.98;;
21758;SDS011;11041;50.854;20.580;2022-07-29T07:01:06;4.32;;;1.77;;
21758;SDS011;11041;50.854;20.580;2022-07-29T07:03:33;6.10;;;2.03;;
21758;SDS011;11041;50.854;20.580;2022-07-29T07:06:00;3.60;;;1.50;;
21758;SDS011;11041;50.854;20.580;2022-07-29T07:08:27;6.03;;;1.42;;
21758;SDS011;11041;50.854;20.580;2022-07-29T07:10:53;4.07;;;1.45;;
21758;SDS011;11041;50.854;20.580;2022-07-29T07:13:20;3.03;;;1.75;;
21758;SDS011;11041;50.854;20.580;2022-07-29T07:15:47;3.05;;;1.42;;
21758;SDS011;11041;50.854;20.580;2022-07-29T07:18:14;3.88;;;1.48;;
21758;SDS011;11041;50.854;20.580;2022-07-29T07:20:42;5.30;;;2.00;;
21758;SDS011;11041;50.854;20.580;2022-07-29T07:23:10;4.03;;;1.90;;
21758;SDS011;11041;50.854;20.580;2022-07-29T07:25:37;3.22;;;1.33;;
21758;SDS011;11041;50.854;20.580;2022-07-29T07:28:03;2.75;;;1.63;;
21758;SDS011;11041;50.854;20.580;2022-07-29T07:30:30;6.40;;;1.73;;
21758;SDS011;11041;50.854;20.580;2022-07-29T07:32:57;5.20;;;1.50;;
21758;SDS011;11041;50.854;20.580;2022-07-29T07:35:23;2.25;;;1.58;;
21758;SDS011;11041;50.854;20.580;2022-07-29T07:37:50;6.20;;;1.70;;
21758;SDS011;11041;50.854;20.580;2022-07-29T07:40:17;3.70;;;1.95;;
21758;SDS011;11041;50.854;20.580;2022-07-29T07:42:43;3.22;;;1.92;;
21758;SDS011;11041;50.854;20.580;2022-07-29T07:45:10;4.72;;;2.10;;
21758;SDS011;11041;50.854;20.580;2022-07-29T07:47:37;9.13;;;1.83;;
21758;SDS011;11041;50.854;20.580;2022-07-29T07:50:05;6.63;;;1.98;;
21758;SDS011;11041;50.854;20.580;2022-07-29T07:52:37;9.30;;;1.98;;
21758;SDS011;11041;50.854;20.580;2022-07-29T07:55:16;2.42;;;1.75;;
21758;SDS011;11041;50.854;20.580;2022-07-29T07:57:45;3.00;;;1.58;;
21758;SDS011;11041;50.854;20.580;2022-07-29T08:00:13;2.90;;;1.40;;
21758;SDS011;11041;50.854;20.580;2022-07-29T08:02:42;4.40;;;1.52;;
21758;SDS011;11041;50.854;20.580;2022-07-29T08:05:11;4.47;;;1.50;;
21758;SDS011;11041;50.854;20.580;2022-07-29T08:07:43;5.40;;;2.13;;
21758;SDS011;11041;50.854;20.580;2022-07-29T08:10:14;4.43;;;2.20;;
21758;SDS011;11041;50.854;20.580;2022-07-29T08:13:02;5.60;;;1.52;;
21758;SDS011;11041;50.854;20.580;2022-07-29T08:15:33;3.88;;;1.42;;
21758;SDS011;11041;50.854;20.580;2022-07-29T08:18:01;9.27;;;1.90;;
21758;SDS011;11041;50.854;20.580;2022-07-29T08:20:27;6.00;;;1.55;;
21758;SDS011;11041;50.854;20.580;2022-07-29T08:22:55;5.38;;;2.08;;
21758;SDS011;11041;50.854;20.580;2022-07-29T08:25:21;5.07;;;1.50;;
21758;SDS011;11041;50.854;20.580;2022-07-29T08:27:48;2.25;;;1.40;;
21758;SDS011;11041;50.854;20.580;2022-07-29T08:30:15;6.18;;;1.63;;
21758;SDS011;11041;50.854;20.580;2022-07-29T08:32:41;2.97;;;1.50;;
21758;SDS011;11041;50.854;20.580;2022-07-29T08:35:08;5.95;;;1.70;;
21758;SDS011;11041;50.854;20.580;2022-07-29T08:37:34;5.40;;;1.90;;
21758;SDS011;11041;50.854;20.580;2022-07-29T08:40:01;6.95;;;1.90;;
21758;SDS011;11041;50.854;20.580;2022-07-29T08:42:28;4.10;;;1.60;;
21758;SDS011;11041;50.854;20.580;2022-07-29T08:44:56;11.00;;;2.30;;
21758;SDS011;11041;50.854;20.580;2022-07-29T08:47:23;3.00;;;1.75;;
21758;SDS011;11041;50.854;20.580;2022-07-29T08:49:53;4.13;;;1.73;;
21758;SDS011;11041;50.854;20.580;2022-07-29T08:52:19;6.50;;;2.38;;
21758;SDS011;11041;50.854;20.580;2022-07-29T08:54:52;2.75;;;1.40;;
21758;SDS011;11041;50.854;20.580;2022-07-29T08:57:19;6.95;;;2.55;;
21758;SDS011;11041;50.854;20.580;2022-07-29T08:59:47;8.30;;;2.03;;
21758;SDS011;11041;50.854;20.580;2022-07-29T09:02:20;4.13;;;1.90;;
21758;SDS011;11041;50.854;20.580;2022-07-29T09:04:50;4.80;;;1.67;;
21758;SDS011;11041;50.854;20.580;2022-07-29T09:07:17;3.50;;;1.50;;
21758;SDS011;11041;50.854;20.580;2022-07-29T09:09:44;6.22;;;1.75;;
21758;SDS011;11041;50.854;20.580;2022-07-29T09:12:12;4.05;;;1.77;;
21758;SDS011;11041;50.854;20.580;2022-07-29T09:14:39;7.72;;;2.20;;
21758;SDS011;11041;50.854;20.580;2022-07-29T09:17:06;4.30;;;1.67;;
21758;SDS011;11041;50.854;20.580;2022-07-29T09:19:34;2.72;;;1.52;;
21758;SDS011;11041;50.854;20.580;2022-07-29T09:22:04;5.75;;;1.67;;
21758;SDS011;11041;50.854;20.580;2022-07-29T09:24:42;6.03;;;1.73;;
21758;SDS011;11041;50.854;20.580;2022-07-29T09:32:33;7.53;;;1.83;;
21758;SDS011;11041;50.854;20.580;2022-07-29T09:35:21;2.83;;;2.13;;
21758;SDS011;11041;50.854;20.580;2022-07-29T09:37:51;6.18;;;2.10;;
21758;SDS011;11041;50.854;20.580;2022-07-29T09:40:35;4.35;;;1.80;;
21758;SDS011;11041;50.854;20.580;2022-07-29T09:43:12;4.22;;;1.70;;
21758;SDS011;11041;50.854;20.580;2022-07-29T09:45:40;2.22;;;1.90;;
21758;SDS011;11041;50.854;20.580;2022-07-29T09:48:14;2.38;;;1.70;;
21758;SDS011;11041;50.854;20.580;2022-07-29T09:50:47;11.95;;;2.47;;
21758;SDS011;11041;50.854;20.580;2022-07-29T09:53:29;3.85;;;1.52;;
21758;SDS011;11041;50.854;20.580;2022-07-29T09:56:05;3.42;;;1.65;;
21758;SDS011;11041;50.854;20.580;2022-07-29T09:58:32;8.77;;;1.90;;
21758;SDS011;11041;50.854;20.580;2022-07-29T10:01:00;4.28;;;2.13;;
21758;SDS011;11041;50.854;20.580;2022-07-29T10:03:28;2.60;;;2.00;;
21758;SDS011;11041;50.854;20.580;2022-07-29T10:06:08;3.35;;;1.83;;
21758;SDS011;11041;50.854;20.580;2022-07-29T10:08:38;1.98;;;1.65;;
21758;SDS011;11041;50.854;20.580;2022-07-29T10:11:15;3.35;;;2.20;;
21758;SDS011;11041;50.854;20.580;2022-07-29T10:13:44;5.13;;;2.30;;
21758;SDS011;11041;50.854;20.580;2022-07-29T10:16:14;5.72;;;2.63;;
21758;SDS011;11041;50.854;20.580;2022-07-29T10:18:42;3.05;;;2.03;;
21758;SDS011;11041;50.854;20.580;2022-07-29T10:21:10;2.72;;;2.20;;
21758;SDS011;11041;50.854;20.580;2022-07-29T10:23:38;8.82;;;2.47;;
21758;SDS011;11041;50.854;20.580;2022-07-29T10:26:06;2.92;;;2.20;;
21758;SDS011;11041;50.854;20.580;2022-07-29T10:28:35;4.60;;;2.35;;
21758;SDS011;11041;50.854;20.580;2022-07-29T10:31:04;7.10;;;2.30;;
21758;SDS011;11041;50.854;20.580;2022-07-29T10:42:23;3.20;;;2.42;;
21758;SDS011;11041;50.854;20.580;2022-07-29T10:44:54;2.92;;;2.35;;
21758;SDS011;11041;50.854;20.580;2022-07-29T10:47:22;6.63;;;2.40;;
21758;SDS011;11041;50.854;20.580;2022-07-29T10:50:02;4.95;;;2.28;;
21758;SDS011;11041;50.854;20.580;2022-07-29T10:55:33;5.35;;;3.42;;
21758;SDS011;11041;50.854;20.580;2022-07-29T10:58:12;5.38;;;3.50;;
21758;SDS011;11041;50.854;20.580;2022-07-29T11:00:46;2.85;;;2.55;;
21758;SDS011;11041;50.854;20.580;2022-07-29T11:06:12;2.90;;;2.65;;
21758;SDS011;11041;50.854;20.580;2022-07-29T11:08:40;7.10;;;2.78;;
21758;SDS011;11041;50.854;20.580;2022-07-29T11:13:47;9.10;;;2.95;;
21758;SDS011;11041;50.854;20.580;2022-07-29T11:16:17;6.90;;;2.65;;
21758;SDS011;11041;50.854;20.580;2022-07-29T11:21:38;4.13;;;2.90;;
21758;SDS011;11041;50.854;20.580;2022-07-29T11:24:13;6.10;;;2.50;;
21758;SDS011;11041;50.854;20.580;2022-07-29T11:27:06;4.32;;;2.60;;
21758;SDS011;11041;50.854;20.580;2022-07-29T11:29:56;6.07;;;2.95;;
21758;SDS011;11041;50.854;20.580;2022-07-29T11:32:35;3.60;;;2.72;;
21758;SDS011;11041;50.854;20.580;2022-07-29T11:35:14;3.08;;;2.70;;
21758;SDS011;11041;50.854;20.580;2022-07-29T11:43:55;4.25;;;2.60;;
21758;SDS011;11041;50.854;20.580;2022-07-29T11:49:21;5.93;;;3.08;;
21758;SDS011;11041;50.854;20.580;2022-07-29T11:51:57;4.93;;;2.60;;
21758;SDS011;11041;50.854;20.580;2022-07-29T11:54:29;9.98;;;3.00;;
21758;SDS011;11041;50.854;20.580;2022-07-29T11:56:59;12.15;;;3.33;;
21758;SDS011;11041;50.854;20.580;2022-07-29T11:59:26;5.70;;;3.50;;
21758;SDS011;11041;50.854;20.580;2022-07-29T12:01:53;6.00;;;2.97;;
21758;SDS011;11041;50.854;20.580;2022-07-29T12:04:25;5.10;;;3.15;;
21758;SDS011;11041;50.854;20.580;2022-07-29T12:06:52;19.38;;;4.43;;
21758;SDS011;11041;50.854;20.580;2022-07-29T12:09:20;8.00;;;3.38;;
21758;SDS011;11041;50.854;20.580;2022-07-29T12:11:58;6.13;;;3.25;;
21758;SDS011;11041;50.854;20.580;2022-07-29T12:16:55;5.43;;;2.70;;
21758;SDS011;11041;50.854;20.580;2022-07-29T12:19:24;5.57;;;2.67;;
21758;SDS011;11041;50.854;20.580;2022-07-29T12:21:53;3.55;;;2.80;;
21758;SDS011;11041;50.854;20.580;2022-07-29T12:24:24;14.32;;;3.45;;
21758;SDS011;11041;50.854;20.580;2022-07-29T12:26:51;5.13;;;3.60;;
21758;SDS011;11041;50.854;20.580;2022-07-29T12:29:23;6.70;;;3.25;;
21758;SDS011;11041;50.854;20.580;2022-07-29T12:31:53;8.23;;;3.17;;
21758;SDS011;11041;50.854;20.580;2022-07-29T12:34:21;6.18;;;2.90;;
21758;SDS011;11041;50.854;20.580;2022-07-29T12:36:52;7.35;;;3.60;;
21758;SDS011;11041;50.854;20.580;2022-07-29T12:39:18;5.57;;;3.25;;
21758;SDS011;11041;50.854;20.580;2022-07-29T12:41:46;4.78;;;3.13;;
21758;SDS011;11041;50.854;20.580;2022-07-29T12:44:12;8.07;;;2.97;;
21758;SDS011;11041;50.854;20.580;2022-07-29T12:46:39;7.75;;;3.50;;
21758;SDS011;11041;50.854;20.580;2022-07-29T12:49:05;4.30;;;3.28;;
21758;SDS011;11041;50.854;20.580;2022-07-29T12:51:33;5.60;;;3.20;;
21758;SDS011;11041;50.854;20.580;2022-07-29T12:54:07;7.22;;;2.83;;
21758;SDS011;11041;50.854;20.580;2022-07-29T12:56:42;6.03;;;3.45;;
21758;SDS011;11041;50.854;20.580;2022-07-29T12:59:11;5.07;;;2.75;;
21758;SDS011;11041;50.854;20.580;2022-07-29T13:01:44;7.25;;;3.30;;
21758;SDS011;11041;50.854;20.580;2022-07-29T13:04:30;4.22;;;3.60;;
21758;SDS011;11041;50.854;20.580;2022-07-29T13:07:05;3.35;;;3.05;;
21758;SDS011;11041;50.854;20.580;2022-07-29T13:09:40;6.50;;;4.25;;
21758;SDS011;11041;50.854;20.580;2022-07-29T13:12:09;3.97;;;3.10;;
21758;SDS011;11041;50.854;20.580;2022-07-29T13:14:38;6.20;;;3.42;;
21758;SDS011;11041;50.854;20.580;2022-07-29T13:17:17;5.75;;;3.38;;
21758;SDS011;11041;50.854;20.580;2022-07-29T13:19:49;6.82;;;3.50;;
21758;SDS011;11041;50.854;20.580;2022-07-29T13:22:19;5.72;;;3.20;;
21758;SDS011;11041;50.854;20.580;2022-07-29T13:24:51;11.60;;;3.55;;
21758;SDS011;11041;50.854;20.580;2022-07-29T13:27:30;8.13;;;3.58;;
21758;SDS011;11041;50.854;20.580;2022-07-29T13:30:03;14.35;;;3.80;;
21758;SDS011;11041;50.854;20.580;2022-07-29T13:32:33;5.35;;;3.15;;
21758;SDS011;11041;50.854;20.580;2022-07-29T13:35:03;9.32;;;3.45;;
21758;SDS011;11041;50.854;20.580;2022-07-29T13:37:33;7.32;;;3.83;;
21758;SDS011;11041;50.854;20.580;2022-07-29T13:40:04;8.02;;;3.97;;
21758;SDS011;11041;50.854;20.580;2022-07-29T13:42:33;4.40;;;3.70;;
21758;SDS011;11041;50.854;20.580;2022-07-29T13:45:00;17.48;;;4.40;;
21758;SDS011;11041;50.854;20.580;2022-07-29T13:47:28;6.45;;;3.80;;
21758;SDS011;11041;50.854;20.580;2022-07-29T13:49:55;8.02;;;4.30;;
21758;SDS011;11041;50.854;20.580;2022-07-29T13:52:21;5.22;;;4.20;;
21758;SDS011;11041;50.854;20.580;2022-07-29T13:54:48;7.38;;;3.80;;
21758;SDS011;11041;50.854;20.580;2022-07-29T13:57:15;4.88;;;4.00;;
21758;SDS011;11041;50.854;20.580;2022-07-29T13:59:42;4.97;;;3.60;;
21758;SDS011;11041;50.854;20.580;2022-07-29T14:02:10;6.78;;;3.42;;
21758;SDS011;11041;50.854;20.580;2022-07-29T14:04:38;9.05;;;3.67;;
21758;SDS011;11041;50.854;20.580;2022-07-29T14:07:05;9.70;;;3.72;;
21758;SDS011;11041;50.854;20.580;2022-07-29T14:09:33;7.88;;;3.42;;
21758;SDS011;11041;50.854;20.580;2022-07-29T14:11:59;5.60;;;3.25;;
21758;SDS011;11041;50.854;20.580;2022-07-29T14:14:28;8.00;;;3.53;;
21758;SDS011;11041;50.854;20.580;2022-07-29T14:16:57;6.35;;;3.72;;
21758;SDS011;11041;50.854;20.580;2022-07-29T14:19:24;8.13;;;3.35;;
21758;SDS011;11041;50.854;20.580;2022-07-29T14:21:50;3.83;;;3.40;;
21758;SDS011;11041;50.854;20.580;2022-07-29T14:24:17;5.63;;;3.88;;
21758;SDS011;11041;50.854;20.580;2022-07-29T14:26:43;8.20;;;3.50;;
21758;SDS011;11041;50.854;20.580;2022-07-29T14:29:10;9.48;;;3.60;;
21758;SDS011;11041;50.854;20.580;2022-07-29T14:31:37;9.60;;;3.55;;
21758;SDS011;11041;50.854;20.580;2022-07-29T14:34:03;10.10;;;4.07;;
21758;SDS011;11041;50.854;20.580;2022-07-29T14:36:30;5.10;;;3.53;;
21758;SDS011;11041;50.854;20.580;2022-07-29T14:38:56;7.82;;;3.90;;
21758;SDS011;11041;50.854;20.580;2022-07-29T14:41:23;12.27;;;4.30;;
21758;SDS011;11041;50.854;20.580;2022-07-29T14:43:49;6.88;;;3.90;;
21758;SDS011;11041;50.854;20.580;2022-07-29T14:46:18;7.60;;;4.63;;
21758;SDS011;11041;50.854;20.580;2022-07-29T14:48:44;4.22;;;3.70;;
21758;SDS011;11041;50.854;20.580;2022-07-29T14:51:11;7.80;;;3.92;;
21758;SDS011;11041;50.854;20.580;2022-07-29T14:53:38;8.55;;;4.53;;
21758;SDS011;11041;50.854;20.580;2022-07-29T14:56:04;9.68;;;3.42;;
21758;SDS011;11041;50.854;20.580;2022-07-29T14:58:31;5.40;;;3.28;;
21758;SDS011;11041;50.854;20.580;2022-07-29T15:00:57;5.40;;;3.25;;
21758;SDS011;11041;50.854;20.580;2022-07-29T15:03:24;3.25;;;3.00;;
21758;SDS011;11041;50.854;20.580;2022-07-29T15:05:50;3.58;;;3.28;;
21758;SDS011;11041;50.854;20.580;2022-07-29T15:08:17;5.82;;;3.40;;
21758;SDS011;11041;50.854;20.580;2022-07-29T15:10:43;4.68;;;3.10;;
21758;SDS011;11041;50.854;20.580;2022-07-29T15:13:09;7.57;;;3.10;;
21758;SDS011;11041;50.854;20.580;2022-07-29T15:15:36;14.05;;;3.67;;
21758;SDS011;11041;50.854;20.580;2022-07-29T15:18:03;7.28;;;3.67;;
21758;SDS011;11041;50.854;20.580;2022-07-29T15:20:30;9.30;;;3.83;;
21758;SDS011;11041;50.854;20.580;2022-07-29T15:22:57;6.10;;;3.50;;
21758;SDS011;11041;50.854;20.580;2022-07-29T15:25:24;6.50;;;3.00;;
21758;SDS011;11041;50.854;20.580;2022-07-29T15:27:52;4.45;;;3.30;;
21758;SDS011;11041;50.854;20.580;2022-07-29T15:30:18;5.55;;;2.90;;
21758;SDS011;11041;50.854;20.580;2022-07-29T15:32:45;4.10;;;2.75;;
21758;SDS011;11041;50.854;20.580;2022-07-29T15:35:11;6.55;;;3.47;;